Winnemucca Municipal Airport Winnemucca US
ICAO: KWMC
IATA: WMC
Category: Medium
Scheduled Services: No

Elevation: 4308 ft
TransAlt. 18000 ft.

Airport Communications:
ASOS:120.175
SALT LAKE CNTR:132.25
RENO RDO:122.3
CTAF/UNICOM:122.8

KWMC Zoom In..

If you have problems with the map follow the link
https://www.worldairports.se/pages/airport.php?
ICAO=KWMC

Runways:

(A) RW 02 length 4800 ft width 75 ft
---- / hdg 24

(B) RW 14 length 7000 ft width 100 ft
---- / hdg 144

(C) RW 20 length 4800 ft width 75 ft
---- / hdg 204

(D) RW 32 length 7000 ft width 100 ft
---- / hdg 324

Location; KWMC
Day. 08 / Time. 18.56 Zulu
* Altimeter: 30.00
* Temperature: 07° c. 44.6°f.
* Wind from: 250° Speed 04 kn.
Dewpoint: 02° c.
Visibility: 10 Statute Miles.
Clouds: Broken 3200 ft.
Clouds: Overcast 4300 ft.

KWMC 081856Z AUTO 25004KT 10SM BKN032 OVC043 07/02 A3000 RMK AO2 RAB35E46 SLP157 P0000 T00720017


Wind From 250°
Speed 04 kn.

 
 
jpsmedia worldairports.se 2019   terms of use